Date,TemperatureHighF,TemperatureAvgF,TemperatureLowF,DewpointHighF,DewpointAvgF,DewpointLowF,HumidityHigh,HumidityAvg,HumidityLow,PressureMaxIn,PressureMinIn,WindSpeedMaxMPH,WindSpeedAvgMPH,GustSpeedMaxMPH,PrecipitationSumIn
2014-1-1,48.4,44.3,40.9,45.0,40.8,38.1,90,87,80,29.72,29.31,27,10,27,0.17
2014-1-2,49.9,47.7,44.3,45.4,43.6,40.3,90,86,81,29.60,29.26,25,11,25,0.02
2014-1-3,52.6,47.2,43.6,47.2,43.2,38.2,92,86,78,29.64,29.43,35,13,35,0.29
2014-1-4,48.4,45.9,43.0,44.2,41.9,38.8,88,86,81,29.67,29.30,25,8,25,0.02
2014-1-5,47.0,42.8,39.4,43.5,39.0,35.7,90,86,83,29.75,29.34,23,8,23,0.00
2014-1-6,56.5,51.3,45.5,50.8,47.3,40.5,93,86,81,29.60,29.47,27,15,27,0.11
2014-1-7,52.4,50.0,48.1,46.1,44.6,42.9,86,82,78,29.83,29.60,25,14,25,0.00
2014-1-8,49.9,47.2,44.8,46.0,44.1,42.0,91,89,84,30.02,29.80,18,7,18,0.24
2014-1-9,52.0,48.3,44.6,48.4,44.1,38.8,93,85,75,29.85,29.56,23,10,26,0.09
2014-1-10,48.4,43.7,40.1,42.8,39.7,37.2,90,86,80,29.99,29.84,15,8,15,0.00
2014-1-11,48.1,42.2,38.5,44.3,38.3,34.6,93,86,75,30.23,29.91,18,8,18,0.02
2014-1-12,45.5,38.7,35.3,40.8,34.6,31.7,92,85,78,30.25,29.86,14,2,14,0.01
2014-1-13,49.1,43.9,38.2,44.1,40.4,34.0,91,87,81,29.86,29.67,17,7,17,0.00
2014-1-14,43.4,41.3,39.4,40.7,38.6,36.7,92,90,87,29.75,29.58,8,3,8,0.11
2014-1-15,44.5,40.8,38.3,42.6,38.3,35.5,93,91,87,29.76,29.51,18,9,18,0.14
2014-1-16,47.9,45.6,42.8,45.5,43.2,40.1,94,91,89,29.51,29.35,17,7,17,0.17
2014-1-17,48.6,45.1,43.6,43.3,41.6,39.8,93,87,80,29.47,29.35,20,10,20,0.11
2014-1-18,47.3,44.7,41.9,43.0,40.6,37.5,92,86,81,29.49,29.40,9,3,9,0.00
2014-1-19,47.5,43.4,40.7,45.1,39.4,36.9,91,86,83,29.58,29.35,9,2,9,0.01
2014-1-20,43.2,40.9,39.1,41.3,38.4,36.4,93,91,89,29.82,29.58,5,0,5,0.18
2014-1-21,45.4,40.7,38.3,42.6,38.1,35.6,93,91,86,29.88,29.82,10,2,10,0.01
2014-1-22,41.0,39.0,36.2,37.2,34.5,31.5,89,84,79,29.89,29.81,10,3,10,0.08
2014-1-23,44.1,40.2,38.9,41.9,37.7,35.2,95,91,84,29.90,29.74,16,4,16,0.34
2014-1-24,45.0,39.7,36.5,40.6,36.3,32.9,93,88,79,30.04,29.83,10,1,10,0.02
2014-1-25,43.4,38.4,36.4,40.1,34.4,32.2,93,85,81,30.05,29.63,33,5,33,0.15
2014-1-26,45.0,42.2,40.5,42.8,37.9,35.8,94,85,77,29.88,29.15,20,8,20,0.30
2014-1-27,42.8,39.0,37.1,38.6,35.4,33.1,91,87,80,29.30,29.19,22,11,22,0.10
2014-1-28,41.8,39.5,37.1,37.6,35.9,33.7,91,87,82,29.40,29.29,20,6,20,0.04
2014-1-29,40.0,36.0,31.9,34.9,31.1,27.8,86,82,77,29.59,29.39,13,5,13,0.00
2014-1-30,42.8,36.5,31.9,37.4,32.3,27.9,88,85,81,29.71,29.58,8,3,8,0.01
2014-1-31,43.0,38.1,32.9,38.6,34.4,29.4,94,87,81,29.74,29.38,14,4,14,0.08